sensor_id;sensor_type;location;lat;lon;timestamp;pressure;altitude;pressure_sealevel;temperature;humidity
25658;BME280;13517;59.320;18.042;2023-02-16T00:00:17;101259.63;;;0.71;100.00
25658;BME280;13517;59.320;18.042;2023-02-16T00:02:44;101291.22;;;0.93;100.00
25658;BME280;13517;59.320;18.042;2023-02-16T00:05:23;101280.59;;;0.91;100.00
25658;BME280;13517;59.320;18.042;2023-02-16T00:07:50;101279.72;;;0.92;100.00
25658;BME280;13517;59.320;18.042;2023-02-16T00:10:16;101270.03;;;0.88;100.00
25658;BME280;13517;59.320;18.042;2023-02-16T00:12:41;101157.53;;;0.26;100.00
25658;BME280;13517;59.320;18.042;2023-02-16T00:15:25;101271.75;;;0.92;100.00
25658;BME280;13517;59.320;18.042;2023-02-16T00:17:52;101237.44;;;0.74;100.00
25658;BME280;13517;59.320;18.042;2023-02-16T00:20:18;101149.41;;;0.34;100.00
25658;BME280;13517;59.320;18.042;2023-02-16T00:22:44;101271.66;;;0.97;100.00
25658;BME280;13517;59.320;18.042;2023-02-16T00:25:09;101259.44;;;0.85;100.00
25658;BME280;13517;59.320;18.042;2023-02-16T00:27:35;101210.19;;;0.58;100.00
25658;BME280;13517;59.320;18.042;2023-02-16T00:30:02;101274.28;;;0.99;100.00
25658;BME280;13517;59.320;18.042;2023-02-16T00:32:27;101283.22;;;0.96;100.00
25658;BME280;13517;59.320;18.042;2023-02-16T00:34:53;101250.56;;;0.85;100.00
25658;BME280;13517;59.320;18.042;2023-02-16T00:37:18;101201.41;;;0.54;100.00
25658;BME280;13517;59.320;18.042;2023-02-16T00:39:44;101273.50;;;0.93;100.00
25658;BME280;13517;59.320;18.042;2023-02-16T00:42:19;101217.16;;;0.68;100.00
25658;BME280;13517;59.320;18.042;2023-02-16T00:44:56;101235.63;;;0.76;100.00
25658;BME280;13517;59.320;18.042;2023-02-16T00:47:43;101263.78;;;0.92;100.00
25658;BME280;13517;59.320;18.042;2023-02-16T00:50:24;101259.22;;;0.98;100.00
25658;BME280;13517;59.320;18.042;2023-02-16T00:52:50;101249.50;;;0.97;100.00
25658;BME280;13517;59.320;18.042;2023-02-16T00:55:18;101219.59;;;0.82;100.00
25658;BME280;13517;59.320;18.042;2023-02-16T00:57:47;101192.50;;;0.55;100.00
25658;BME280;13517;59.320;18.042;2023-02-16T01:00:26;101248.66;;;0.94;100.00
25658;BME280;13517;59.320;18.042;2023-02-16T01:02:55;101254.84;;;0.95;100.00
25658;BME280;13517;59.320;18.042;2023-02-16T01:05:21;101216.97;;;0.79;100.00
25658;BME280;13517;59.320;18.042;2023-02-16T01:07:47;101227.41;;;0.91;100.00
25658;BME280;13517;59.320;18.042;2023-02-16T01:10:31;101238.84;;;0.97;100.00
25658;BME280;13517;59.320;18.042;2023-02-16T01:13:16;101236.16;;;1.00;100.00
25658;BME280;13517;59.320;18.042;2023-02-16T01:15:42;101225.72;;;0.87;100.00
25658;BME280;13517;59.320;18.042;2023-02-16T01:18:11;101232.59;;;0.99;100.00
25658;BME280;13517;59.320;18.042;2023-02-16T01:20:37;101186.09;;;0.70;100.00
25658;BME280;13517;59.320;18.042;2023-02-16T01:23:03;101233.50;;;1.00;100.00
25658;BME280;13517;59.320;18.042;2023-02-16T01:25:28;101207.03;;;0.90;100.00
25658;BME280;13517;59.320;18.042;2023-02-16T01:27:54;101175.38;;;0.75;100.00
25658;BME280;13517;59.320;18.042;2023-02-16T01:30:21;101215.72;;;1.02;100.00
25658;BME280;13517;59.320;18.042;2023-02-16T01:32:47;101199.00;;;0.93;100.00
25658;BME280;13517;59.320;18.042;2023-02-16T01:37:44;101200.75;;;0.94;100.00
25658;BME280;13517;59.320;18.042;2023-02-16T01:40:35;101213.09;;;0.99;100.00
25658;BME280;13517;59.320;18.042;2023-02-16T01:43:23;101205.16;;;0.97;100.00
25658;BME280;13517;59.320;18.042;2023-02-16T01:46:00;101160.25;;;0.77;100.00
25658;BME280;13517;59.320;18.042;2023-02-16T01:48:29;101140.03;;;0.68;100.00
25658;BME280;13517;59.320;18.042;2023-02-16T01:51:15;101196.13;;;1.06;100.00
25658;BME280;13517;59.320;18.042;2023-02-16T01:54:20;101193.44;;;1.06;100.00
25658;BME280;13517;59.320;18.042;2023-02-16T01:56:42;101182.13;;;0.94;100.00
25658;BME280;13517;59.320;18.042;2023-02-16T01:59:38;101162.69;;;0.92;100.00
25658;BME280;13517;59.320;18.042;2023-02-16T02:02:20;101161.72;;;0.95;100.00
25658;BME280;13517;59.320;18.042;2023-02-16T02:05:07;101162.63;;;0.94;100.00
25658;BME280;13517;59.320;18.042;2023-02-16T02:07:58;101144.91;;;0.93;100.00
25658;BME280;13517;59.320;18.042;2023-02-16T02:13:49;101157.97;;;1.07;100.00
25658;BME280;13517;59.320;18.042;2023-02-16T02:16:19;101136.91;;;0.94;100.00
25658;BME280;13517;59.320;18.042;2023-02-16T02:18:46;101117.56;;;0.86;100.00
25658;BME280;13517;59.320;18.042;2023-02-16T02:27:23;101142.13;;;1.01;100.00
25658;BME280;13517;59.320;18.042;2023-02-16T02:30:04;101151.88;;;1.00;100.00
25658;BME280;13517;59.320;18.042;2023-02-16T02:43:26;101126.28;;;0.94;100.00
25658;BME280;13517;59.320;18.042;2023-02-16T02:46:04;101084.03;;;0.77;100.00
25658;BME280;13517;59.320;18.042;2023-02-16T02:48:33;101111.16;;;0.97;100.00
25658;BME280;13517;59.320;18.042;2023-02-16T03:00:16;101106.81;;;0.92;100.00
25658;BME280;13517;59.320;18.042;2023-02-16T03:05:48;101076.88;;;0.79;100.00
25658;BME280;13517;59.320;18.042;2023-02-16T03:08:17;101051.31;;;0.71;100.00
25658;BME280;13517;59.320;18.042;2023-02-16T03:10:49;101064.41;;;0.81;100.00
25658;BME280;13517;59.320;18.042;2023-02-16T03:13:47;101012.59;;;0.57;100.00
25658;BME280;13517;59.320;18.042;2023-02-16T03:16:20;101083.53;;;1.02;100.00
25658;BME280;13517;59.320;18.042;2023-02-16T03:18:46;101066.09;;;0.89;100.00
25658;BME280;13517;59.320;18.042;2023-02-16T03:21:31;101069.63;;;0.88;100.00
25658;BME280;13517;59.320;18.042;2023-02-16T03:24:24;101094.28;;;0.98;100.00
25658;BME280;13517;59.320;18.042;2023-02-16T03:27:11;101086.31;;;0.98;100.00
25658;BME280;13517;59.320;18.042;2023-02-16T03:29:57;101072.22;;;0.92;100.00
25658;BME280;13517;59.320;18.042;2023-02-16T03:32:24;101074.91;;;0.91;100.00
25658;BME280;13517;59.320;18.042;2023-02-16T03:34:49;101065.19;;;0.88;100.00
25658;BME280;13517;59.320;18.042;2023-02-16T03:37:15;101042.28;;;0.81;100.00
25658;BME280;13517;59.320;18.042;2023-02-16T03:39:41;101078.19;;;1.05;100.00
25658;BME280;13517;59.320;18.042;2023-02-16T03:42:25;101079.31;;;0.93;100.00
25658;BME280;13517;59.320;18.042;2023-02-16T03:44:50;101046.75;;;0.79;100.00
25658;BME280;13517;59.320;18.042;2023-02-16T03:47:16;101050.13;;;0.89;100.00
25658;BME280;13517;59.320;18.042;2023-02-16T03:49:42;101031.66;;;0.81;100.00
25658;BME280;13517;59.320;18.042;2023-02-16T03:52:08;100988.69;;;0.57;100.00
25658;BME280;13517;59.320;18.042;2023-02-16T03:54:34;101058.03;;;0.93;100.00
25658;BME280;13517;59.320;18.042;2023-02-16T03:56:59;101028.91;;;0.84;100.00
25658;BME280;13517;59.320;18.042;2023-02-16T03:59:24;101054.22;;;1.07;100.00
25658;BME280;13517;59.320;18.042;2023-02-16T04:01:50;101055.06;;;1.09;100.00
25658;BME280;13517;59.320;18.042;2023-02-16T04:04:15;101055.06;;;1.09;100.00
25658;BME280;13517;59.320;18.042;2023-02-16T04:06:40;101009.41;;;0.85;100.00
25658;BME280;13517;59.320;18.042;2023-02-16T04:09:06;100997.97;;;0.80;100.00
25658;BME280;13517;59.320;18.042;2023-02-16T04:11:31;101034.72;;;1.05;100.00
25658;BME280;13517;59.320;18.042;2023-02-16T04:14:15;101013.72;;;0.92;100.00
25658;BME280;13517;59.320;18.042;2023-02-16T04:16:41;101047.00;;;1.12;100.00
25658;BME280;13517;59.320;18.042;2023-02-16T04:19:06;101034.72;;;1.05;100.00
25658;BME280;13517;59.320;18.042;2023-02-16T04:21:33;101036.41;;;1.11;100.00
25658;BME280;13517;59.320;18.042;2023-02-16T04:23:58;101043.41;;;1.15;100.00
25658;BME280;13517;59.320;18.042;2023-02-16T04:26:23;101030.09;;;1.15;100.00
25658;BME280;13517;59.320;18.042;2023-02-16T04:28:49;100969.63;;;0.79;100.00
25658;BME280;13517;59.320;18.042;2023-02-16T04:31:14;100973.13;;;0.83;100.00
25658;BME280;13517;59.320;18.042;2023-02-16T04:33:40;101015.00;;;1.15;100.00
25658;BME280;13517;59.320;18.042;2023-02-16T04:36:06;100994.81;;;1.05;100.00
25658;BME280;13517;59.320;18.042;2023-02-16T04:38:31;100963.22;;;0.89;100.00
25658;BME280;13517;59.320;18.042;2023-02-16T04:40:56;100950.16;;;0.77;100.00
25658;BME280;13517;59.320;18.042;2023-02-16T04:43:22;100949.34;;;0.73;100.00
25658;BME280;13517;59.320;18.042;2023-02-16T04:45:47;100959.00;;;0.79;100.00
25658;BME280;13517;59.320;18.042;2023-02-16T04:48:13;100979.03;;;0.95;100.00
25658;BME280;13517;59.320;18.042;2023-02-16T04:50:38;101023.84;;;1.17;100.00
25658;BME280;13517;59.320;18.042;2023-02-16T04:53:04;101019.41;;;1.18;100.00
25658;BME280;13517;59.320;18.042;2023-02-16T04:55:29;100973.81;;;0.92;100.00
25658;BME280;13517;59.320;18.042;2023-02-16T04:57:55;100950.13;;;0.78;100.00
25658;BME280;13517;59.320;18.042;2023-02-16T05:00:20;101002.78;;;1.06;100.00
25658;BME280;13517;59.320;18.042;2023-02-16T05:02:46;100973.72;;;0.95;100.00
25658;BME280;13517;59.320;18.042;2023-02-16T05:05:11;100930.94;;;0.62;100.00
25658;BME280;13517;59.320;18.042;2023-02-16T05:07:37;101007.06;;;1.12;100.00
25658;BME280;13517;59.320;18.042;2023-02-16T05:10:03;101002.66;;;1.11;100.00
25658;BME280;13517;59.320;18.042;2023-02-16T05:12:29;100955.34;;;0.83;100.00
25658;BME280;13517;59.320;18.042;2023-02-16T05:15:13;101005.31;;;1.11;100.00
25658;BME280;13517;59.320;18.042;2023-02-16T05:17:38;100958.03;;;0.81;100.00
25658;BME280;13517;59.320;18.042;2023-02-16T05:20:04;100962.41;;;0.86;100.00
25658;BME280;13517;59.320;18.042;2023-02-16T05:22:30;100961.69;;;0.76;100.00
25658;BME280;13517;59.320;18.042;2023-02-16T05:24:59;101000.44;;;0.91;100.00
25658;BME280;13517;59.320;18.042;2023-02-16T05:27:27;101002.25;;;0.89;100.00
25658;BME280;13517;59.320;18.042;2023-02-16T05:29:53;100902.94;;;0.46;100.00
25658;BME280;13517;59.320;18.042;2023-02-16T05:32:19;100964.25;;;0.80;100.00
25658;BME280;13517;59.320;18.042;2023-02-16T05:34:45;100983.69;;;0.84;100.00
25658;BME280;13517;59.320;18.042;2023-02-16T05:37:12;100983.69;;;0.84;100.00
25658;BME280;13517;59.320;18.042;2023-02-16T05:39:38;100945.03;;;0.67;100.00
25658;BME280;13517;59.320;18.042;2023-02-16T05:42:03;100926.78;;;0.49;100.00
25658;BME280;13517;59.320;18.042;2023-02-16T05:44:28;100984.63;;;0.81;100.00
25658;BME280;13517;59.320;18.042;2023-02-16T05:46:54;100973.25;;;0.75;100.00
25658;BME280;13517;59.320;18.042;2023-02-16T05:49:19;100862.06;;;0.06;100.00
25658;BME280;13517;59.320;18.042;2023-02-16T05:51:45;100919.88;;;0.40;100.00
25658;BME280;13517;59.320;18.042;2023-02-16T05:54:11;100910.19;;;0.37;100.00
25658;BME280;13517;59.320;18.042;2023-02-16T05:56:45;100962.75;;;0.68;100.00
25658;BME280;13517;59.320;18.042;2023-02-16T05:59:11;100951.09;;;0.74;100.00
25658;BME280;13517;59.320;18.042;2023-02-16T06:01:36;100899.31;;;0.50;100.00
25658;BME280;13517;59.320;18.042;2023-02-16T06:04:08;100866.94;;;0.29;100.00
25658;BME280;13517;59.320;18.042;2023-02-16T06:06:35;100906.31;;;0.54;100.00
25658;BME280;13517;59.320;18.042;2023-02-16T06:09:01;100958.00;;;0.85;100.00
25658;BME280;13517;59.320;18.042;2023-02-16T06:11:27;100856.31;;;0.29;100.00
25658;BME280;13517;59.320;18.042;2023-02-16T06:14:14;100918.38;;;0.71;100.00
25658;BME280;13517;59.320;18.042;2023-02-16T06:16:41;100901.75;;;0.61;100.00
25658;BME280;13517;59.320;18.042;2023-02-16T06:19:07;100911.25;;;0.73;100.00
25658;BME280;13517;59.320;18.042;2023-02-16T06:21:33;100902.50;;;0.67;100.00
25658;BME280;13517;59.320;18.042;2023-02-16T06:23:58;100906.06;;;0.66;100.00
25658;BME280;13517;59.320;18.042;2023-02-16T06:26:24;100912.88;;;0.80;100.00
25658;BME280;13517;59.320;18.042;2023-02-16T06:28:50;100883.03;;;0.65;100.00
25658;BME280;13517;59.320;18.042;2023-02-16T06:31:15;100919.03;;;0.82;100.00
25658;BME280;13517;59.320;18.042;2023-02-16T06:33:42;100921.69;;;0.82;100.00
25658;BME280;13517;59.320;18.042;2023-02-16T06:36:08;100923.56;;;0.77;100.00
25658;BME280;13517;59.320;18.042;2023-02-16T06:38:33;100863.16;;;0.41;100.00
25658;BME280;13517;59.320;18.042;2023-02-16T06:40:59;100935.91;;;0.81;100.00
25658;BME280;13517;59.320;18.042;2023-02-16T06:43:24;100912.28;;;0.65;100.00
25658;BME280;13517;59.320;18.042;2023-02-16T06:45:50;100907.09;;;0.59;100.00
25658;BME280;13517;59.320;18.042;2023-02-16T06:48:15;100899.13;;;0.58;100.00
25658;BME280;13517;59.320;18.042;2023-02-16T06:50:40;100891.25;;;0.54;100.00
25658;BME280;13517;59.320;18.042;2023-02-16T06:53:06;100918.44;;;0.67;100.00
25658;BME280;13517;59.320;18.042;2023-02-16T06:55:31;100908.75;;;0.63;100.00
25658;BME280;13517;59.320;18.042;2023-02-16T06:58:04;100884.47;;;0.38;100.00
25658;BME280;13517;59.320;18.042;2023-02-16T07:00:30;100873.09;;;0.31;100.00
25658;BME280;13517;59.320;18.042;2023-02-16T07:02:55;100937.84;;;0.73;100.00
25658;BME280;13517;59.320;18.042;2023-02-16T07:05:21;100922.94;;;0.64;100.00
25658;BME280;13517;59.320;18.042;2023-02-16T07:07:47;100872.16;;;0.34;100.00
25658;BME280;13517;59.320;18.042;2023-02-16T07:10:12;100936.75;;;0.81;100.00
25658;BME280;13517;59.320;18.042;2023-02-16T07:12:39;100872.78;;;0.47;100.00
25658;BME280;13517;59.320;18.042;2023-02-16T07:15:04;100922.66;;;0.78;100.00
25658;BME280;13517;59.320;18.042;2023-02-16T07:17:30;100876.13;;;0.57;100.00
25658;BME280;13517;59.320;18.042;2023-02-16T07:19:55;100908.47;;;0.79;100.00
25658;BME280;13517;59.320;18.042;2023-02-16T07:22:20;100879.47;;;0.66;100.00
25658;BME280;13517;59.320;18.042;2023-02-16T07:24:46;100902.25;;;0.80;100.00
25658;BME280;13517;59.320;18.042;2023-02-16T07:27:11;100864.53;;;0.61;100.00
25658;BME280;13517;59.320;18.042;2023-02-16T07:29:37;100874.06;;;0.70;100.00
25658;BME280;13517;59.320;18.042;2023-02-16T07:32:02;100889.72;;;0.85;100.00
25658;BME280;13517;59.320;18.042;2023-02-16T07:34:28;100894.81;;;0.96;100.00
25658;BME280;13517;59.320;18.042;2023-02-16T07:36:53;100876.25;;;0.91;100.00
25658;BME280;13517;59.320;18.042;2023-02-16T07:39:19;100898.97;;;1.08;100.00
25658;BME280;13517;59.320;18.042;2023-02-16T07:41:44;100918.19;;;1.21;100.00
25658;BME280;13517;59.320;18.042;2023-02-16T07:44:10;100914.63;;;1.20;100.00
25658;BME280;13517;59.320;18.042;2023-02-16T07:46:35;100865.59;;;0.93;100.00
25658;BME280;13517;59.320;18.042;2023-02-16T07:49:01;100894.38;;;1.15;100.00
25658;BME280;13517;59.320;18.042;2023-02-16T07:51:29;100903.94;;;1.24;100.00
25658;BME280;13517;59.320;18.042;2023-02-16T07:53:55;100874.81;;;1.17;100.00
25658;BME280;13517;59.320;18.042;2023-02-16T07:56:23;100900.00;;;1.40;100.00
25658;BME280;13517;59.320;18.042;2023-02-16T07:58:56;100888.59;;;1.35;100.00
25658;BME280;13517;59.320;18.042;2023-02-16T08:01:23;100899.00;;;1.46;100.00
25658;BME280;13517;59.320;18.042;2023-02-16T08:03:49;100892.81;;;1.44;100.00
25658;BME280;13517;59.320;18.042;2023-02-16T08:06:15;100908.63;;;1.52;100.00
25658;BME280;13517;59.320;18.042;2023-02-16T08:08:40;100889.06;;;1.53;100.00
25658;BME280;13517;59.320;18.042;2023-02-16T08:11:10;100898.00;;;1.50;100.00
25658;BME280;13517;59.320;18.042;2023-02-16T08:13:35;100874.31;;;1.39;100.00
25658;BME280;13517;59.320;18.042;2023-02-16T08:16:01;100886.53;;;1.46;100.00
25658;BME280;13517;59.320;18.042;2023-02-16T08:18:26;100797.13;;;1.01;100.00
25658;BME280;13517;59.320;18.042;2023-02-16T08:20:52;100865.41;;;1.40;100.00
25658;BME280;13517;59.320;18.042;2023-02-16T08:23:17;100865.25;;;1.46;100.00
25658;BME280;13517;59.320;18.042;2023-02-16T08:25:42;100882.59;;;1.63;100.00
25658;BME280;13517;59.320;18.042;2023-02-16T08:28:08;100849.03;;;1.56;100.00
25658;BME280;13517;59.320;18.042;2023-02-16T08:30:33;100820.22;;;1.37;100.00
25658;BME280;13517;59.320;18.042;2023-02-16T08:33:00;100881.47;;;1.72;100.00
25658;BME280;13517;59.320;18.042;2023-02-16T08:35:28;100870.19;;;1.62;100.00
25658;BME280;13517;59.320;18.042;2023-02-16T08:37:59;100889.53;;;1.70;100.00
25658;BME280;13517;59.320;18.042;2023-02-16T08:40:26;100877.84;;;1.76;100.00
25658;BME280;13517;59.320;18.042;2023-02-16T08:42:52;100854.34;;;1.56;100.00
25658;BME280;13517;59.320;18.042;2023-02-16T08:45:18;100833.53;;;1.37;100.00
25658;BME280;13517;59.320;18.042;2023-02-16T08:47:43;100848.16;;;1.57;100.00
25658;BME280;13517;59.320;18.042;2023-02-16T08:50:09;100872.63;;;1.71;100.00
25658;BME280;13517;59.320;18.042;2023-02-16T08:52:36;100860.44;;;1.61;100.00
25658;BME280;13517;59.320;18.042;2023-02-16T08:55:02;100873.47;;;1.73;100.00
25658;BME280;13517;59.320;18.042;2023-02-16T08:57:27;100842.81;;;1.57;100.00
25658;BME280;13517;59.320;18.042;2023-02-16T08:59:53;100856.44;;;1.79;100.00
25658;BME280;13517;59.320;18.042;2023-02-16T09:02:38;100861.63;;;1.85;100.00
25658;BME280;13517;59.320;18.042;2023-02-16T09:05:03;100865.72;;;1.97;100.00
25658;BME280;13517;59.320;18.042;2023-02-16T09:07:29;100862.75;;;2.10;100.00
25658;BME280;13517;59.320;18.042;2023-02-16T09:09:59;100820.13;;;2.08;100.00
25658;BME280;13517;59.320;18.042;2023-02-16T09:12:25;100839.03;;;2.32;100.00
25658;BME280;13517;59.320;18.042;2023-02-16T09:14:52;100839.09;;;2.61;100.00
25658;BME280;13517;59.320;18.042;2023-02-16T09:17:18;100823.63;;;2.74;100.00
25658;BME280;13517;59.320;18.042;2023-02-16T09:19:43;100815.47;;;2.78;100.00
25658;BME280;13517;59.320;18.042;2023-02-16T09:22:09;100815.34;;;2.81;100.00
25658;BME280;13517;59.320;18.042;2023-02-16T09:24:35;100803.34;;;2.96;100.00
25658;BME280;13517;59.320;18.042;2023-02-16T09:27:00;100822.34;;;3.14;100.00
25658;BME280;13517;59.320;18.042;2023-02-16T09:29:26;100828.44;;;3.18;100.00
25658;BME280;13517;59.320;18.042;2023-02-16T09:31:53;100826.88;;;3.12;100.00
25658;BME280;13517;59.320;18.042;2023-02-16T09:34:20;100813.69;;;3.07;100.00
25658;BME280;13517;59.320;18.042;2023-02-16T09:36:47;100825.16;;;3.09;100.00
25658;BME280;13517;59.320;18.042;2023-02-16T09:39:13;100818.53;;;2.94;100.00
25658;BME280;13517;59.320;18.042;2023-02-16T09:46:54;100820.31;;;2.94;100.00
25658;BME280;13517;59.320;18.042;2023-02-16T09:49:29;100821.22;;;2.94;100.00
25658;BME280;13517;59.320;18.042;2023-02-16T09:52:18;100804.88;;;2.75;100.00
25658;BME280;13517;59.320;18.042;2023-02-16T09:54:57;100789.78;;;2.74;100.00
25658;BME280;13517;59.320;18.042;2023-02-16T09:57:41;100810.56;;;2.93;100.00
25658;BME280;13517;59.320;18.042;2023-02-16T10:03:31;100797.13;;;2.96;100.00
25658;BME280;13517;59.320;18.042;2023-02-16T10:08:34;100789.22;;;2.93;100.00
25658;BME280;13517;59.320;18.042;2023-02-16T10:11:26;100804.16;;;2.98;100.00
25658;BME280;13517;59.320;18.042;2023-02-16T10:16:51;100788.84;;;3.05;100.00
25658;BME280;13517;59.320;18.042;2023-02-16T10:19:48;100796.38;;;3.19;100.00
25658;BME280;13517;59.320;18.042;2023-02-16T10:22:24;100774.00;;;3.23;100.00
25658;BME280;13517;59.320;18.042;2023-02-16T10:25:18;100792.44;;;3.31;100.00
25658;BME280;13517;59.320;18.042;2023-02-16T10:27:51;100741.25;;;3.18;100.00
25658;BME280;13517;59.320;18.042;2023-02-16T10:30:21;100787.41;;;3.49;100.00
25658;BME280;13517;59.320;18.042;2023-02-16T10:35:26;100699.72;;;3.09;100.00
25658;BME280;13517;59.320;18.042;2023-02-16T10:41:12;100734.66;;;3.29;100.00
25658;BME280;13517;59.320;18.042;2023-02-16T10:43:50;100768.88;;;3.44;100.00
25658;BME280;13517;59.320;18.042;2023-02-16T10:46:24;100759.72;;;3.51;100.00
25658;BME280;13517;59.320;18.042;2023-02-16T10:48:54;100768.63;;;3.50;100.00
25658;BME280;13517;59.320;18.042;2023-02-16T10:51:24;100748.34;;;3.45;100.00
25658;BME280;13517;59.320;18.042;2023-02-16T10:53:55;100769.03;;;3.65;100.00
25658;BME280;13517;59.320;18.042;2023-02-16T10:59:05;100743.94;;;3.69;100.00
25658;BME280;13517;59.320;18.042;2023-02-16T11:01:39;100760.41;;;3.82;100.00
25658;BME280;13517;59.320;18.042;2023-02-16T11:04:07;100761.34;;;3.81;100.00
25658;BME280;13517;59.320;18.042;2023-02-16T11:06:34;100726.56;;;3.57;100.00
25658;BME280;13517;59.320;18.042;2023-02-16T11:09:01;100756.53;;;3.65;100.00
25658;BME280;13517;59.320;18.042;2023-02-16T11:11:35;100762.56;;;3.72;100.00
25658;BME280;13517;59.320;18.042;2023-02-16T11:14:04;100741.84;;;3.53;100.00
25658;BME280;13517;59.320;18.042;2023-02-16T11:16:31;100740.50;;;3.65;100.00
25658;BME280;13517;59.320;18.042;2023-02-16T11:21:51;100757.25;;;3.71;100.00
25658;BME280;13517;59.320;18.042;2023-02-16T11:24:30;100752.69;;;3.74;100.00
25658;BME280;13517;59.320;18.042;2023-02-16T11:29:37;100735.13;;;3.67;100.00
25658;BME280;13517;59.320;18.042;2023-02-16T11:32:08;100743.91;;;3.71;100.00
25658;BME280;13517;59.320;18.042;2023-02-16T11:34:36;100756.72;;;3.86;100.00
25658;BME280;13517;59.320;18.042;2023-02-16T11:37:29;100747.13;;;3.80;100.00
25658;BME280;13517;59.320;18.042;2023-02-16T11:40:05;100751.69;;;3.77;100.00
25658;BME280;13517;59.320;18.042;2023-02-16T11:42:59;100748.44;;;3.68;100.00
25658;BME280;13517;59.320;18.042;2023-02-16T11:45:32;100743.84;;;3.72;100.00
25658;BME280;13517;59.320;18.042;2023-02-16T11:48:09;100746.56;;;3.71;100.00
25658;BME280;13517;59.320;18.042;2023-02-16T11:50:39;100758.03;;;3.74;100.00
25658;BME280;13517;59.320;18.042;2023-02-16T11:53:35;100746.78;;;3.64;100.00
25658;BME280;13517;59.320;18.042;2023-02-16T11:56:24;100747.44;;;3.71;100.00
25658;BME280;13517;59.320;18.042;2023-02-16T11:59:04;100753.53;;;3.75;100.00
25658;BME280;13517;59.320;18.042;2023-02-16T12:05:37;100743.56;;;3.80;100.00
25658;BME280;13517;59.320;18.042;2023-02-16T12:13:44;100747.41;;;3.97;100.00
25658;BME280;13517;59.320;18.042;2023-02-16T12:21:41;100746.19;;;4.05;100.00
25658;BME280;13517;59.320;18.042;2023-02-16T12:27:00;100718.09;;;3.95;100.00
25658;BME280;13517;59.320;18.042;2023-02-16T12:32:20;100741.38;;;4.15;100.00
25658;BME280;13517;59.320;18.042;2023-02-16T12:40:34;100712.69;;;4.20;100.00
25658;BME280;13517;59.320;18.042;2023-02-16T12:45:44;100723.91;;;4.30;100.00
25658;BME280;13517;59.320;18.042;2023-02-16T12:48:30;100725.88;;;4.25;100.00
25658;BME280;13517;59.320;18.042;2023-02-16T12:51:02;100716.97;;;4.25;100.00
25658;BME280;13517;59.320;18.042;2023-02-16T12:56:22;100686.53;;;4.05;100.00
25658;BME280;13517;59.320;18.042;2023-02-16T12:58:57;100691.03;;;4.03;100.00
25658;BME280;13517;59.320;18.042;2023-02-16T13:01:27;100726.97;;;4.19;100.00
25658;BME280;13517;59.320;18.042;2023-02-16T13:09:40;100702.91;;;4.19;100.00
25658;BME280;13517;59.320;18.042;2023-02-16T13:12:38;100716.34;;;4.18;100.00
25658;BME280;13517;59.320;18.042;2023-02-16T13:15:16;100709.94;;;4.22;100.00
25658;BME280;13517;59.320;18.042;2023-02-16T13:17:59;100718.84;;;4.22;100.00
25658;BME280;13517;59.320;18.042;2023-02-16T13:20:26;100655.84;;;3.91;100.00
25658;BME280;13517;59.320;18.042;2023-02-16T13:29:20;100709.31;;;4.15;100.00
25658;BME280;13517;59.320;18.042;2023-02-16T13:45:26;100707.69;;;4.11;100.00
25658;BME280;13517;59.320;18.042;2023-02-16T13:47:53;100673.31;;;4.00;100.00
25658;BME280;13517;59.320;18.042;2023-02-16T13:52:46;100667.69;;;4.08;100.00
25658;BME280;13517;59.320;18.042;2023-02-16T13:55:33;100705.34;;;4.26;100.00
25658;BME280;13517;59.320;18.042;2023-02-16T13:58:02;100708.69;;;4.31;100.00
25658;BME280;13517;59.320;18.042;2023-02-16T14:00:30;100697.91;;;4.34;100.00
25658;BME280;13517;59.320;18.042;2023-02-16T14:03:42;100700.56;;;4.34;100.00
25658;BME280;13517;59.320;18.042;2023-02-16T14:05:51;100703.34;;;4.31;100.00
25658;BME280;13517;59.320;18.042;2023-02-16T14:08:27;100700.81;;;4.28;100.00
25658;BME280;13517;59.320;18.042;2023-02-16T14:21:24;100664.91;;;4.11;100.00
25658;BME280;13517;59.320;18.042;2023-02-16T14:23:56;100687.81;;;4.18;100.00
25658;BME280;13517;59.320;18.042;2023-02-16T14:26:22;100670.25;;;4.11;100.00
25658;BME280;13517;59.320;18.042;2023-02-16T14:29:00;100686.31;;;4.11;100.00
25658;BME280;13517;59.320;18.042;2023-02-16T14:31:33;100680.19;;;4.07;100.00
25658;BME280;13517;59.320;18.042;2023-02-16T14:34:45;100688.03;;;4.12;100.00
25658;BME280;13517;59.320;18.042;2023-02-16T14:39:42;100690.53;;;4.17;100.00
25658;BME280;13517;59.320;18.042;2023-02-16T14:42:28;100626.78;;;3.82;100.00
25658;BME280;13517;59.320;18.042;2023-02-16T14:45:07;100694.44;;;4.08;100.00
25658;BME280;13517;59.320;18.042;2023-02-16T14:53:54;100689.88;;;4.10;100.00
25658;BME280;13517;59.320;18.042;2023-02-16T14:56:33;100688.16;;;4.09;100.00
25658;BME280;13517;59.320;18.042;2023-02-16T15:01:43;100660.38;;;3.89;100.00
25658;BME280;13517;59.320;18.042;2023-02-16T15:04:10;100657.78;;;3.88;100.00
25658;BME280;13517;59.320;18.042;2023-02-16T15:06:45;100645.00;;;3.72;100.00
25658;BME280;13517;59.320;18.042;2023-02-16T15:09:14;100690.13;;;4.04;100.00
25658;BME280;13517;59.320;18.042;2023-02-16T15:11:53;100629.94;;;3.70;100.00
25658;BME280;13517;59.320;18.042;2023-02-16T15:17:35;100692.22;;;3.95;100.00
25658;BME280;13517;59.320;18.042;2023-02-16T15:20:36;100681.66;;;3.92;100.00
25658;BME280;13517;59.320;18.042;2023-02-16T15:23:05;100678.84;;;3.95;100.00
25658;BME280;13517;59.320;18.042;2023-02-16T15:25:37;100666.59;;;3.90;100.00